Time;durP1;ratioP1;P1;durP2;ratioP2;P2;SDS_P1;SDS_P2;PMS_P1;PMS_P2;Temp;Humidity;BMP_temperature;BMP_pressure;BME280_temperature;BME280_humidity;BME280_pressure;Samples;Min_cycle;Max_cycle;Signal;HPM_P1;HPM_P2
2022/02/05 00:00:37;;;;;;;34.55;16.27;;;;;;;1.32;44.08;93925.97;5012832;28;20083;-76
2022/02/05 00:03:24;;;;;;;27.00;14.20;;;;;;;1.12;44.17;93913.53;5015370;28;20037;-72
2022/02/05 00:05:54;;;;;;;27.33;15.02;;;;;;;1.17;44.33;93910.94;5022738;28;20090;-73
2022/02/05 00:43:06;;;;;;;24.50;13.60;;;;;;;0.96;44.00;93925.72;5012247;28;20075;-73
2022/02/05 00:45:36;;;;;;;30.48;14.18;;;;;;;1.09;43.99;93945.44;5017555;28;20650;-74
2022/02/05 00:48:03;;;;;;;33.97;15.15;;;;;;;0.99;43.92;93919.97;5016121;28;20025;-74
2022/02/05 00:50:31;;;;;;;25.98;14.50;;;;;;;1.07;44.00;93937.06;5013559;28;20127;-72
2022/02/05 00:53:05;;;;;;;42.80;18.10;;;;;;;1.08;44.07;93944.66;5016329;28;20181;-73
2022/02/05 00:55:34;;;;;;;24.85;14.50;;;;;;;1.01;44.08;93930.19;5018244;28;20065;-75
2022/02/05 00:58:05;;;;;;;27.83;16.15;;;;;;;0.83;44.00;93899.16;5019528;28;20037;-75
2022/02/05 01:00:33;;;;;;;36.83;17.60;;;;;;;1.09;44.17;93924.47;5015472;28;20037;-76
2022/02/05 01:02:58;;;;;;;57.75;23.73;;;;;;;0.83;44.00;93889.47;5009439;28;20644;-75
2022/02/05 01:05:24;;;;;;;41.88;19.38;;;;;;;0.92;44.23;93902.91;5011812;28;20168;-75
2022/02/05 01:07:50;;;;;;;33.35;16.67;;;;;;;0.59;44.36;93857.63;5013501;28;20391;-75
2022/02/05 01:10:16;;;;;;;32.00;12.43;;;;;;;1.04;44.52;93917.38;5017037;28;20041;-75
2022/02/05 01:12:49;;;;;;;27.38;12.18;;;;;;;0.91;44.33;93903.94;5015875;28;20180;-76
2022/02/05 01:15:19;;;;;;;25.35;11.68;;;;;;;1.02;44.47;93919.47;5015405;28;20055;-78
2022/02/05 01:17:50;;;;;;;23.55;11.60;;;;;;;0.80;44.64;93888.13;5019306;28;20065;-77
2022/02/05 01:23:23;;;;;;;31.23;14.73;;;;;;;1.03;44.45;93912.41;4992749;28;20045;-77
2022/02/05 01:25:58;;;;;;;38.55;16.77;;;;;;;1.08;44.00;93904.59;5020871;28;20589;-75
2022/02/05 01:28:29;;;;;;;22.13;13.25;;;;;;;1.15;43.68;93902.53;5019791;28;20065;-75
2022/02/05 01:30:56;;;;;;;26.30;11.07;;;;;;;1.04;43.76;93890.41;5024062;28;20037;-75
2022/02/05 01:36:24;;;;;;;28.08;10.75;;;;;;;0.76;43.77;93853.03;5016556;28;20048;-75
2022/02/05 01:55:35;;;;;;;32.55;15.45;;;;;;;0.57;44.16;93833.53;5019139;28;20113;-75
2022/02/05 02:06:08;;;;;;;22.40;10.50;;;;;;;0.75;44.15;93888.09;5018102;28;20052;-75
2022/02/05 02:11:37;;;;;;;14.98;8.82;;;;;;;0.45;44.96;93895.69;5018172;28;20083;-75
2022/02/05 02:14:32;;;;;;;15.10;8.48;;;;;;;0.43;44.83;93873.44;5011956;28;20174;-75
2022/02/05 02:18:07;;;;;;;16.97;9.20;;;;;;;0.72;44.35;93886.00;5020987;28;20037;-76
2022/02/05 02:20:02;;;;;;;;;;;;;;;0.76;44.68;93899.34;5019135;28;20045;-75
2022/02/05 02:25:02;;;;;;;16.10;7.55;;;;;;;0.78;44.34;93897.28;5018071;28;20049;-78
2022/02/05 02:30:07;;;;;;;12.88;7.93;;;;;;;0.49;44.51;93865.38;5025579;28;20121;-74
2022/02/05 02:32:36;;;;;;;15.55;9.60;;;;;;;0.28;45.36;93892.41;5015685;28;20098;-76
2022/02/05 02:35:08;;;;;;;28.70;11.68;;;;;;;0.53;44.55;93890.03;5020051;28;20060;-75
2022/02/05 02:37:44;;;;;;;15.27;8.80;;;;;;;0.51;44.28;93891.28;5009167;28;20091;-75
2022/02/05 02:42:50;;;;;;;12.95;8.02;;;;;;;0.23;45.27;93900.19;5016100;28;20125;-74
2022/02/05 02:45:15;;;;;;;19.02;9.48;;;;;;;0.02;45.64;93864.41;5023674;28;20037;-74
2022/02/05 02:47:43;;;;;;;17.08;9.68;;;;;;;0.31;45.21;93897.13;5010913;28;20041;-75
2022/02/05 02:50:29;;;;;;;20.65;9.35;;;;;;;0.24;45.32;93899.16;5014599;28;20048;-76
2022/02/05 02:58:28;;;;;;;12.18;8.68;;;;;;;0.18;45.30;93877.38;5011864;28;20044;-76
2022/02/05 03:00:57;;;;;;;11.68;6.65;;;;;;;0.39;45.36;93901.13;5020736;28;20041;-76
2022/02/05 03:03:22;;;;;;;15.93;7.43;;;;;;;0.30;45.41;93885.09;5010864;28;20025;-75
2022/02/05 03:05:47;;;;;;;14.48;8.50;;;;;;;0.32;45.24;93869.94;5018566;28;20063;-75
2022/02/05 03:08:15;;;;;;;14.68;8.50;;;;;;;0.52;44.83;93887.63;5015184;28;20488;-75
2022/02/05 03:10:42;;;;;;;15.43;7.32;;;;;;;0.54;44.99;93925.63;5001895;28;20115;-76
2022/02/05 03:13:08;;;;;;;15.68;8.45;;;;;;;0.57;45.08;93912.03;5009214;28;20505;-77
2022/02/05 03:15:38;;;;;;;12.35;7.70;;;;;;;0.51;44.91;93894.69;5015195;28;20079;-75
2022/02/05 03:18:09;;;;;;;12.20;7.57;;;;;;;0.54;44.95;93885.56;5017746;28;20040;-75
2022/02/05 03:20:35;;;;;;;16.42;7.85;;;;;;;0.55;44.94;93887.13;5020651;28;22061;-75
2022/02/05 03:23:02;;;;;;;9.55;7.55;;;;;;;0.71;44.82;93907.97;5012519;28;20071;-74
2022/02/05 03:25:29;;;;;;;13.85;8.05;;;;;;;0.71;45.08;93907.97;5014476;28;20045;-76
2022/02/05 03:27:55;;;;;;;17.63;7.45;;;;;;;0.80;44.82;93903.84;5011660;28;20143;-75
2022/02/05 03:30:21;;;;;;;15.57;7.80;;;;;;;0.68;44.78;93900.63;5023736;28;20033;-75
2022/02/05 03:32:46;;;;;;;16.88;8.85;;;;;;;0.79;44.83;93910.13;5018634;28;20094;-75
2022/02/05 03:35:12;;;;;;;13.13;7.15;;;;;;;0.63;44.99;93903.19;5014608;28;20037;-74
2022/02/05 03:37:37;;;;;;;15.82;9.13;;;;;;;0.63;44.89;93892.72;5017321;28;20040;-75
2022/02/05 03:40:03;;;;;;;15.25;9.02;;;;;;;0.47;45.00;93883.16;5010982;28;20056;-75
2022/02/05 03:42:29;;;;;;;16.67;9.23;;;;;;;0.62;44.82;93882.50;5012908;28;20025;-77
2022/02/05 03:44:54;;;;;;;15.25;8.35;;;;;;;0.54;44.85;93883.75;5010576;28;20025;-75
2022/02/05 03:47:20;;;;;;;18.08;9.55;;;;;;;0.73;44.66;93903.28;5017697;28;20635;-76
2022/02/05 03:49:45;;;;;;;13.98;7.68;;;;;;;0.60;44.42;93901.06;5017365;28;20120;-76
2022/02/05 03:52:17;;;;;;;14.57;8.35;;;;;;;0.61;44.81;93917.56;5018235;28;20052;-76
2022/02/05 03:54:47;;;;;;;16.42;7.30;;;;;;;0.12;45.28;93867.13;5010592;28;20076;-76
2022/02/05 03:57:13;;;;;;;16.95;7.90;;;;;;;0.27;45.18;93896.03;5008258;28;20025;-75
2022/02/05 03:59:38;;;;;;;14.20;7.75;;;;;;;0.36;45.19;93905.81;5021486;28;20029;-75
2022/02/05 04:02:06;;;;;;;17.10;7.60;;;;;;;0.43;45.25;93915.28;5019201;28;20041;-75
2022/02/05 04:04:31;;;;;;;15.18;7.68;;;;;;;0.21;45.09;93865.63;5013944;28;20049;-75
2022/02/05 04:06:57;;;;;;;16.83;7.38;;;;;;;0.65;44.89;93919.41;5011270;28;20048;-75
2022/02/05 04:09:28;;;;;;;16.52;7.47;;;;;;;0.58;44.79;93913.63;5018501;28;20041;-75
2022/02/05 04:17:21;;;;;;;11.38;6.47;;;;;;;0.46;45.40;93938.34;5018068;28;20514;-75
2022/02/05 04:19:46;;;;;;;18.15;7.20;;;;;;;0.30;45.03;93896.31;5016548;28;20036;-76
2022/02/05 04:22:12;;;;;;;17.77;8.32;;;;;;;0.35;44.88;93904.22;5013375;28;20037;-74
2022/02/05 04:24:37;;;;;;;14.35;8.05;;;;;;;0.43;45.00;93931.78;5012337;28;20106;-75
2022/02/05 04:27:03;;;;;;;15.02;7.57;;;;;;;0.54;44.47;93946.56;5011907;28;20025;-75
2022/02/05 04:29:28;;;;;;;14.50;8.82;;;;;;;0.35;44.61;93908.66;5012671;28;20045;-74
2022/02/05 04:31:57;;;;;;;22.33;12.02;;;;;;;0.53;45.00;93931.09;5023697;28;20040;-75
2022/02/05 04:34:22;;;;;;;26.77;14.38;;;;;;;0.25;45.43;93903.38;5003989;28;20044;-74
2022/02/05 04:36:49;;;;;;;23.52;13.77;;;;;;;-0.07;45.39;93875.31;5021233;28;20102;-78
2022/02/05 04:39:17;;;;;;;27.48;14.95;;;;;;;0.04;45.30;93870.97;5014802;28;20738;-75
2022/02/05 04:41:53;;;;;;;29.58;15.68;;;;;;;0.24;45.73;93922.69;5011459;28;20041;-76
2022/02/05 05:04:44;;;;;;;35.38;19.40;;;;;;;0.17;47.04;93940.41;5014897;28;20099;-76
2022/02/05 05:20:16;;;;;;;26.67;16.13;;;;;;;0.33;46.17;93932.47;5022662;28;20063;-75
2022/02/05 05:22:41;;;;;;;37.72;18.58;;;;;;;0.54;45.39;93932.69;5017693;28;20131;-75
2022/02/05 05:25:10;;;;;;;33.70;18.27;;;;;;;0.51;45.43;93939.19;5018543;28;20071;-78
2022/02/05 05:27:37;;;;;;;50.00;22.85;;;;;;;0.27;45.86;93917.75;5018337;28;20665;-74
2022/02/05 05:30:04;;;;;;;38.33;18.33;;;;;;;0.27;46.33;93948.34;5016590;28;20128;-75
2022/02/05 05:32:29;;;;;;;26.90;14.95;;;;;;;0.40;46.19;93950.59;5021200;28;20069;-77
2022/02/05 05:34:57;;;;;;;18.83;11.40;;;;;;;-0.08;46.83;93915.56;5014018;28;20136;-76
2022/02/05 05:37:22;;;;;;;22.60;10.23;;;;;;;0.24;46.45;93943.63;5015424;28;20041;-76
2022/02/05 05:39:49;;;;;;;19.00;9.10;;;;;;;0.09;46.24;93909.47;5014673;28;20041;-75
2022/02/05 05:42:25;;;;;;;17.00;9.82;;;;;;;0.21;45.80;93917.94;5020534;28;20033;-75
2022/02/05 05:47:49;;;;;;;18.42;9.00;;;;;;;0.20;45.43;93916.38;5019579;28;20677;-75
2022/02/05 05:50:48;;;;;;;17.30;9.27;;;;;;;0.21;45.29;93933.63;5019496;28;20072;-76
2022/02/05 05:52:59;;;;;;;18.63;10.63;;;;;;;0.03;45.81;93928.75;5017275;28;20250;-75
2022/02/05 05:55:25;;;;;;;17.35;10.65;;;;;;;0.15;46.23;93968.66;5019487;28;20576;-75
2022/02/05 05:57:50;;;;;;;19.13;10.73;;;;;;;0.08;46.63;93976.66;5018797;28;20030;-74
2022/02/05 06:00:16;;;;;;;20.33;10.55;;;;;;;0.16;46.68;93962.34;5019390;28;20021;-75
2022/02/05 06:02:41;;;;;;;20.42;10.77;;;;;;;0.11;46.39;93928.28;5016394;28;20041;-75
2022/02/05 06:05:07;;;;;;;15.07;8.23;;;;;;;0.22;45.96;93935.22;5029966;28;20042;-75
2022/02/05 06:07:32;;;;;;;20.60;9.02;;;;;;;0.29;46.09;93943.69;5011904;28;20489;-75
2022/02/05 06:09:58;;;;;;;14.45;8.98;;;;;;;0.38;45.59;93938.78;5022506;28;20044;-75
2022/02/05 06:12:23;;;;;;;15.23;9.02;;;;;;;0.72;45.17;93967.16;5018053;28;20029;-75
2022/02/05 06:14:48;;;;;;;11.90;8.48;;;;;;;0.56;45.22;93944.47;5012031;28;20041;-76
2022/02/05 06:17:21;;;;;;;18.20;9.15;;;;;;;0.52;45.19;93946.00;5020894;28;20037;-75
2022/02/05 06:19:47;;;;;;;19.20;10.52;;;;;;;0.62;45.62;93977.50;5011916;28;20044;-76
2022/02/05 06:22:13;;;;;;;18.60;9.40;;;;;;;0.66;45.50;93962.09;5018625;28;20030;-75
2022/02/05 06:24:38;;;;;;;13.95;8.93;;;;;;;0.61;45.50;93957.59;5018336;28;20262;-75
2022/02/05 06:27:05;;;;;;;15.88;8.93;;;;;;;0.87;45.48;93976.97;5016526;28;20611;-75
2022/02/05 06:29:30;;;;;;;15.88;8.75;;;;;;;0.87;45.33;93952.59;5021490;28;20041;-75
2022/02/05 06:31:56;;;;;;;17.73;8.57;;;;;;;1.05;45.24;93970.56;5021918;28;20552;-75
2022/02/05 06:34:22;;;;;;;43.72;19.92;;;;;;;-0.17;47.15;93955.44;5017624;28;20032;-75
2022/02/05 06:36:48;;;;;;;41.05;24.40;;;;;;;-0.60;48.68;93992.75;5028438;28;20489;-75
2022/02/05 06:39:13;;;;;;;45.58;22.75;;;;;;;-0.16;48.24;93976.13;5022618;28;20025;-75
2022/02/05 06:41:38;;;;;;;43.33;21.08;;;;;;;0.34;46.98;93978.53;5008963;28;20421;-75
2022/02/05 06:44:04;;;;;;;39.45;22.23;;;;;;;0.54;46.91;93998.91;5019753;28;20049;-75
2022/02/05 06:46:29;;;;;;;36.85;22.73;;;;;;;-0.38;48.13;93977.91;5015986;28;20040;-77
2022/02/05 06:48:57;;;;;;;49.10;24.48;;;;;;;-1.33;51.07;93972.81;5012310;28;20042;-74
2022/02/05 06:51:23;;;;;;;51.10;24.33;;;;;;;-1.16;50.89;93964.97;5017335;28;20079;-74
2022/02/05 06:53:48;;;;;;;48.97;23.45;;;;;;;-1.19;51.14;93953.19;5018766;28;20580;-76
2022/02/05 06:56:13;;;;;;;49.22;23.40;;;;;;;-1.00;51.13;93962.38;5020507;28;20855;-75
2022/02/05 06:58:39;;;;;;;43.22;25.15;;;;;;;-0.29;49.88;93991.38;5010984;28;20034;-76
2022/02/05 07:01:04;;;;;;;47.40;25.65;;;;;;;-0.38;50.18;93985.72;5016851;28;20556;-75
2022/02/05 07:03:30;;;;;;;49.78;24.17;;;;;;;0.12;49.87;93997.88;5014028;28;20033;-75
2022/02/05 07:05:56;;;;;;;51.28;26.17;;;;;;;0.23;48.76;93979.47;5014750;28;20459;-76
2022/02/05 07:08:21;;;;;;;39.97;23.23;;;;;;;0.59;47.70;93972.78;5011664;28;20636;-75
2022/02/05 07:10:48;;;;;;;48.80;26.50;;;;;;;0.74;47.61;93988.59;5012987;28;20037;-77
2022/02/05 07:13:18;;;;;;;55.15;28.42;;;;;;;0.95;47.16;93980.94;5009002;28;20033;-75
2022/02/05 07:18:34;;;;;;;67.97;32.90;;;;;;;1.20;46.61;93970.69;5011004;28;20102;-76
2022/02/05 07:29:13;;;;;;;59.38;32.83;;;;;;;0.66;48.30;93988.28;5012557;28;20099;-75
2022/02/05 07:31:40;;;;;;;71.72;34.00;;;;;;;0.01;49.08;93954.34;5022799;28;20489;-75
2022/02/05 07:34:06;;;;;;;58.13;28.92;;;;;;;0.22;49.44;93974.47;5015192;28;20049;-75
2022/02/05 07:36:34;;;;;;;61.72;28.98;;;;;;;0.14;49.39;94014.94;5018772;28;20053;-77
2022/02/05 07:39:00;;;;;;;72.25;31.23;;;;;;;-0.03;50.17;93984.63;5015480;28;20013;-75
2022/02/05 07:41:28;;;;;;;68.80;32.97;;;;;;;0.71;48.34;93981.25;5016917;28;20037;-75
2022/02/05 07:43:54;;;;;;;61.63;32.72;;;;;;;0.94;48.35;94016.03;5018104;28;20501;-76
2022/02/05 07:46:23;;;;;;;63.47;32.92;;;;;;;1.19;47.51;94018.88;5012568;28;20044;-76
2022/02/05 07:48:49;;;;;;;63.15;33.00;;;;;;;1.03;47.27;93983.13;5017895;28;20441;-76
2022/02/05 07:51:14;;;;;;;56.45;32.08;;;;;;;0.90;47.39;94005.25;5016397;28;20028;-75
2022/02/05 07:53:39;;;;;;;63.72;32.38;;;;;;;1.17;47.28;94015.72;5014524;28;20358;-76
2022/02/05 07:56:05;;;;;;;69.13;33.13;;;;;;;1.44;46.25;93990.25;5024297;28;20044;-75
2022/02/05 07:58:32;;;;;;;69.22;33.15;;;;;;;1.57;46.63;94017.88;5013433;28;20025;-75
2022/02/05 08:00:57;;;;;;;69.40;34.35;;;;;;;1.74;46.17;94007.22;5007303;28;20037;-75
2022/02/05 08:03:23;;;;;;;58.10;32.03;;;;;;;1.66;46.33;93996.19;5022762;28;20584;-75
2022/02/05 08:05:51;;;;;;;61.30;35.13;;;;;;;2.05;45.90;94012.44;5024650;28;20045;-75
2022/02/05 08:08:20;;;;;;;77.75;39.70;;;;;;;2.21;45.43;94001.97;5024382;28;20095;-75
2022/02/05 08:10:58;;;;;;;75.95;39.03;;;;;;;2.51;45.02;94005.50;5020172;28;20121;-74
2022/02/05 08:13:30;;;;;;;85.15;39.72;;;;;;;2.45;45.26;94008.41;5027628;28;20421;-73
2022/02/05 08:15:59;;;;;;;62.97;35.10;;;;;;;1.03;47.45;93993.59;5025573;28;20060;-73
2022/02/05 08:18:24;;;;;;;59.20;30.95;;;;;;;0.55;49.04;94010.13;5025632;28;20056;-74
2022/02/05 08:20:50;;;;;;;62.55;33.08;;;;;;;1.08;47.97;94006.75;5024797;28;20484;-74
2022/02/05 08:23:15;;;;;;;48.67;27.15;;;;;;;1.63;46.70;93993.25;5025173;28;20045;-73
2022/02/05 08:25:40;;;;;;;56.38;29.55;;;;;;;1.81;46.65;94005.19;5017209;28;20038;-73
2022/02/05 08:28:06;;;;;;;55.67;28.95;;;;;;;1.60;46.76;93991.94;5023518;28;20520;-74
2022/02/05 08:30:34;;;;;;;59.80;30.65;;;;;;;1.38;47.21;93980.75;5022585;28;20059;-74
2022/02/05 08:33:00;;;;;;;52.13;28.85;;;;;;;1.06;47.50;93993.88;5024810;28;20109;-73
2022/02/05 08:35:25;;;;;;;52.47;29.33;;;;;;;0.66;48.53;93996.13;5020860;28;20132;-73
2022/02/05 08:37:53;;;;;;;56.67;28.30;;;;;;;0.67;49.12;93998.50;5020863;28;20041;-73
2022/02/05 08:40:18;;;;;;;48.15;26.92;;;;;;;1.21;48.50;94007.13;5024664;28;20463;-74
2022/02/05 08:42:43;;;;;;;48.95;28.15;;;;;;;1.20;47.46;93989.00;5022943;28;20033;-76
2022/02/05 08:45:09;;;;;;;43.70;24.52;;;;;;;1.14;46.94;93982.94;5012738;28;20032;-73
2022/02/05 08:47:39;;;;;;;42.15;21.08;;;;;;;0.82;47.10;93970.88;5011157;28;20091;-73
2022/02/05 08:50:10;;;;;;;37.22;19.45;;;;;;;0.71;47.48;93986.50;5015466;28;20087;-73
2022/02/05 08:52:39;;;;;;;46.75;24.83;;;;;;;0.53;48.61;94002.56;5014351;28;20056;-74
2022/02/05 08:55:05;;;;;;;53.47;29.08;;;;;;;0.42;50.06;94029.63;5016094;28;20136;-76
2022/02/05 08:57:34;;;;;;;53.05;27.70;;;;;;;0.34;50.10;94012.56;5016384;28;20448;-73
2022/02/05 09:00:06;;;;;;;52.53;26.95;;;;;;;0.95;49.31;94028.09;5013727;28;20032;-73
2022/02/05 09:02:52;;;;;;;43.15;22.52;;;;;;;1.04;48.51;94013.50;5017660;28;20038;-74
2022/02/05 09:05:30;;;;;;;42.72;20.70;;;;;;;1.52;46.76;94028.31;5021707;28;20249;-74
2022/02/05 09:07:59;;;;;;;50.30;22.92;;;;;;;1.69;46.51;94021.09;5017396;28;20041;-73
2022/02/05 09:15:32;;;;;;;38.08;22.77;;;;;;;2.94;43.66;94035.81;5023916;28;20033;-74
2022/02/05 09:17:57;;;;;;;51.83;26.10;;;;;;;2.92;43.50;94003.00;5012151;28;20404;-75
2022/02/05 09:20:25;;;;;;;47.60;24.45;;;;;;;3.09;43.72;94010.63;5016867;28;20517;-74
2022/02/05 09:22:50;;;;;;;40.40;22.65;;;;;;;2.44;44.97;94033.84;5020352;28;20073;-74
2022/02/05 09:25:16;;;;;;;44.13;26.30;;;;;;;2.60;44.90;94024.16;5024595;28;20124;-73
2022/02/05 09:27:45;;;;;;;47.03;26.30;;;;;;;3.12;43.56;93996.97;5022045;28;20124;-73
2022/02/05 09:30:15;;;;;;;48.47;25.40;;;;;;;3.28;43.21;94001.97;5026178;28;20037;-73
2022/02/05 09:32:40;;;;;;;54.70;31.20;;;;;;;3.52;42.56;94019.84;5028055;28;20052;-73
2022/02/05 09:35:07;;;;;;;63.03;29.08;;;;;;;3.58;42.57;93981.97;5026295;28;20040;-74
2022/02/05 09:37:33;;;;;;;55.03;29.77;;;;;;;3.54;43.11;94009.84;5019647;28;20037;-76
2022/02/05 09:39:58;;;;;;;57.67;29.67;;;;;;;2.51;43.95;93945.13;5016733;28;20043;-75
2022/02/05 09:42:24;;;;;;;61.25;29.02;;;;;;;2.71;44.02;93977.72;5017299;28;20029;-74
2022/02/05 09:44:50;;;;;;;57.88;29.60;;;;;;;3.35;43.37;94002.50;5028247;28;20128;-76
2022/02/05 09:47:16;;;;;;;46.72;26.95;;;;;;;3.50;43.45;93995.66;5020300;28;20120;-74
2022/02/05 09:49:43;;;;;;;52.42;27.58;;;;;;;3.70;43.29;93977.22;5023077;28;20525;-74
2022/02/05 09:52:12;;;;;;;43.38;25.13;;;;;;;3.70;42.75;93980.66;5027035;28;20037;-74
2022/02/05 09:54:40;;;;;;;59.13;30.15;;;;;;;3.62;43.29;93978.56;5019203;28;20033;-75
2022/02/05 09:57:06;;;;;;;58.58;27.92;;;;;;;4.03;42.31;93979.25;5015741;28;20394;-76
2022/02/05 09:59:45;;;;;;;44.95;25.35;;;;;;;3.95;42.47;93948.22;5016461;28;20137;-75
2022/02/05 10:02:25;;;;;;;49.92;26.38;;;;;;;3.16;43.55;93954.13;5017574;28;20446;-74
2022/02/05 10:05:05;;;;;;;48.58;24.98;;;;;;;3.15;44.00;93963.06;5016511;28;20037;-74
2022/02/05 10:07:32;;;;;;;36.20;21.02;;;;;;;2.82;44.71;93961.72;5023908;28;20376;-74
2022/02/05 10:10:04;;;;;;;51.65;25.27;;;;;;;2.68;44.74;93949.38;5012106;28;20428;-78
2022/02/05 10:12:30;;;;;;;42.22;20.52;;;;;;;3.17;44.42;93966.22;5022466;28;20112;-75
2022/02/05 10:15:01;;;;;;;37.72;20.77;;;;;;;3.42;43.97;93964.66;5023295;28;20033;-74
2022/02/05 10:17:46;;;;;;;44.50;21.48;;;;;;;2.91;43.99;93964.63;5022162;28;20151;-74
2022/02/05 10:20:16;;;;;;;35.35;20.27;;;;;;;2.91;44.41;93972.50;5022767;28;20440;-74
2022/02/05 10:22:44;;;;;;;43.92;21.90;;;;;;;3.41;43.60;93950.72;5030307;28;20033;-74
2022/02/05 10:25:24;;;;;;;44.45;24.13;;;;;;;3.21;43.58;93967.28;5004865;28;20219;-74
2022/02/05 10:27:50;;;;;;;40.97;22.38;;;;;;;3.13;43.33;93946.00;5019326;28;20045;-77
2022/02/05 10:30:27;;;;;;;44.33;23.17;;;;;;;3.59;43.46;93959.88;5013423;28;20056;-76
2022/02/05 10:32:58;;;;;;;50.28;25.73;;;;;;;3.34;43.59;93960.69;5021087;28;20116;-74
2022/02/05 10:38:53;;;;;;;46.65;25.40;;;;;;;3.96;42.21;93935.88;5016249;28;20045;-74
2022/02/05 10:40:48;;;;;;;41.58;23.92;;;;;;;4.64;41.79;93965.88;5014392;28;20146;-74
2022/02/05 10:43:30;;;;;;;41.92;23.58;;;;;;;4.63;40.91;93956.38;5015468;28;20037;-74
2022/02/05 10:45:55;;;;;;;54.63;26.02;;;;;;;4.55;41.49;93943.81;5022120;28;20144;-74
2022/02/05 10:48:25;;;;;;;46.33;26.65;;;;;;;5.05;40.14;93954.00;5021477;28;20657;-73
2022/02/05 10:50:53;;;;;;;54.63;27.65;;;;;;;5.51;39.54;93956.28;5017179;28;20060;-74
2022/02/05 11:06:58;;;;;;;57.05;30.75;;;;;;;5.86;39.16;93937.47;5020685;28;20051;-76
2022/02/05 11:09:24;;;;;;;69.53;33.90;;;;;;;6.10;39.18;93942.75;5021735;28;20764;-76
2022/02/05 11:15:56;;;;;;;61.92;34.55;;;;;;;5.40;40.57;93933.69;5022836;28;20087;-76
2022/02/05 11:20:13;;;;;;;62.55;33.45;;;;;;;5.89;39.78;93926.34;5028843;28;20082;-75
2022/02/05 11:23:03;;;;;;;65.97;34.78;;;;;;;5.92;39.13;93872.97;5011691;28;20523;-75
2022/02/05 11:25:34;;;;;;;70.85;35.33;;;;;;;6.15;38.89;93899.66;5024049;28;20044;-76
2022/02/05 11:27:59;;;;;;;64.40;35.85;;;;;;;6.55;38.54;93924.81;5031297;28;20033;-76
2022/02/05 11:30:39;;;;;;;70.55;37.22;;;;;;;6.52;39.00;93931.44;5018332;28;20036;-75
2022/02/05 11:33:19;;;;;;;76.15;38.22;;;;;;;6.77;38.73;93928.44;5019472;28;20256;-76
2022/02/05 11:38:29;;;;;;;;;;;;;;;6.51;39.52;93926.41;5014636;28;20057;-77
2022/02/05 11:40:58;;;;;;;70.40;37.58;;;;;;;6.26;40.10;93924.91;5026751;28;19956;-75
2022/02/05 11:43:32;;;;;;;75.72;35.45;;;;;;;6.61;39.74;93916.50;5023554;28;20521;-76
2022/02/05 11:46:03;;;;;;;76.78;35.40;;;;;;;6.75;39.79;93917.38;5016815;28;20052;-76
2022/02/05 11:48:47;;;;;;;65.15;34.80;;;;;;;6.78;39.76;93916.81;5014797;28;20029;-77
2022/02/05 11:51:17;;;;;;;61.95;33.83;;;;;;;6.94;39.22;93900.72;5019509;28;20253;-75
2022/02/05 11:54:07;;;;;;;64.22;29.42;;;;;;;7.26;39.13;93903.38;5020728;28;20753;-75
2022/02/05 11:59:20;;;;;;;39.13;22.38;;;;;;;6.98;38.65;93819.75;5024843;28;20033;-75
2022/02/05 12:01:46;;;;;;;48.38;25.48;;;;;;;7.34;38.70;93881.53;5008456;28;20501;-76
2022/02/05 12:04:22;;;;;;;56.30;27.02;;;;;;;7.68;38.39;93907.69;5015838;28;20041;-75
2022/02/05 12:07:05;;;;;;;45.38;22.58;;;;;;;7.44;38.46;93891.94;5010860;28;20037;-75
2022/02/05 12:09:43;;;;;;;43.83;20.23;;;;;;;7.82;38.50;93899.81;5025314;28;20040;-75
2022/02/05 12:12:34;;;;;;;36.25;20.30;;;;;;;7.91;38.37;93890.88;5018472;28;20043;-77
2022/02/05 12:15:11;;;;;;;42.67;21.75;;;;;;;8.12;38.36;93902.63;5017665;28;20044;-75
2022/02/05 12:20:29;;;;;;;38.75;18.75;;;;;;;8.10;38.12;93880.97;5021645;28;20041;-75
2022/02/05 12:25:57;;;;;;;26.50;15.32;;;;;;;8.40;38.01;93898.13;5012365;28;20413;-75
2022/02/05 12:28:33;;;;;;;31.05;15.48;;;;;;;8.62;37.85;93891.28;5013074;28;21111;-75
2022/02/05 12:31:01;;;;;;;20.83;10.50;;;;;;;8.72;37.11;93893.72;5021104;28;20072;-75
2022/02/05 12:33:53;;;;;;;15.32;7.13;;;;;;;8.10;36.91;93811.31;5019826;28;20033;-77
2022/02/05 12:36:28;;;;;;;16.77;6.43;;;;;;;8.50;37.61;93892.59;5009172;28;20037;-76
2022/02/05 12:38:56;;;;;;;6.15;3.78;;;;;;;8.41;37.31;93893.59;5017499;28;20156;-76
2022/02/05 12:41:22;;;;;;;6.57;3.95;;;;;;;8.38;36.79;93894.97;5014305;28;20079;-77
2022/02/05 12:43:53;;;;;;;7.63;3.38;;;;;;;8.25;37.21;93895.78;5016698;28;20075;-75
2022/02/05 12:46:21;;;;;;;5.72;2.72;;;;;;;8.15;37.80;93885.38;5019030;28;20041;-78
2022/02/05 12:48:51;;;;;;;6.63;2.75;;;;;;;8.07;37.18;93870.94;5015831;28;20025;-76
2022/02/05 12:51:17;;;;;;;8.35;2.47;;;;;;;8.17;37.46;93869.97;5007774;28;20547;-76
2022/02/05 12:53:43;;;;;;;6.18;2.40;;;;;;;8.29;37.14;93864.94;5021115;28;20237;-77
2022/02/05 12:56:15;;;;;;;6.30;2.92;;;;;;;8.48;37.13;93883.38;5016939;28;20033;-76
2022/02/05 12:59:16;;;;;;;4.55;3.00;;;;;;;8.44;36.74;93888.50;5011793;28;20051;-76
2022/02/05 13:02:09;;;;;;;7.93;3.38;;;;;;;8.49;36.95;93890.25;5000925;28;20600;-76
2022/02/05 13:04:37;;;;;;;7.32;4.07;;;;;;;8.27;36.97;93876.91;5013193;28;20481;-76
2022/02/05 13:07:02;;;;;;;9.02;4.20;;;;;;;8.42;37.20;93889.84;5014547;28;20053;-76
2022/02/05 13:09:28;;;;;;;8.48;3.88;;;;;;;8.29;36.95;93870.25;5013816;28;20402;-77
2022/02/05 13:11:58;;;;;;;7.03;3.00;;;;;;;8.50;37.27;93889.16;5017853;28;20041;-76
2022/02/05 13:14:57;;;;;;;3.28;2.97;;;;;;;8.40;36.73;93861.00;5019037;28;20038;-76
2022/02/05 13:28:36;;;;;;;8.13;2.67;;;;;;;8.63;37.09;93890.22;5016988;28;20048;-76
2022/02/05 13:33:59;;;;;;;7.47;3.20;;;;;;;8.79;36.42;93864.94;5012505;28;20087;-76
2022/02/05 13:39:18;;;;;;;10.32;3.15;;;;;;;8.96;36.50;93894.22;5020403;28;20067;-76
2022/02/05 13:41:57;;;;;;;5.82;2.42;;;;;;;8.72;36.81;93904.31;5025496;28;20517;-74
2022/02/05 13:44:25;;;;;;;5.50;3.50;;;;;;;8.78;36.72;93919.03;5014303;28;20087;-74
2022/02/05 13:47:11;;;;;;;5.53;3.03;;;;;;;8.58;37.71;93915.75;5017206;28;20037;-74
2022/02/05 13:49:38;;;;;;;8.57;3.65;;;;;;;8.30;37.95;93898.31;5013353;28;20547;-73
2022/02/05 13:52:12;;;;;;;8.98;3.50;;;;;;;8.30;38.69;93927.47;5017372;28;20111;-73
2022/02/05 13:54:41;;;;;;;7.50;3.72;;;;;;;8.32;38.95;93927.94;5013323;28;20029;-75
2022/02/05 13:57:12;;;;;;;11.05;3.95;;;;;;;8.23;39.23;93892.63;5011768;28;20025;-74
2022/02/05 13:59:38;;;;;;;6.10;3.40;;;;;;;7.99;39.24;93849.66;5020784;28;20432;-76
2022/02/05 14:02:19;;;;;;;7.38;3.47;;;;;;;8.33;39.61;93923.44;5021105;28;20041;-75
2022/02/05 14:05:15;;;;;;;7.65;3.70;;;;;;;8.18;39.90;93924.53;5022027;28;20375;-76
2022/02/05 14:07:45;;;;;;;11.70;6.05;;;;;;;7.90;39.65;93910.50;5013599;28;20041;-76
2022/02/05 14:10:21;;;;;;;17.02;9.13;;;;;;;7.92;39.84;93902.25;5022434;28;20138;-77
2022/02/05 14:12:52;;;;;;;9.40;4.10;;;;;;;7.58;39.66;93865.53;5026531;28;20199;-76
2022/02/05 14:15:18;;;;;;;6.38;3.28;;;;;;;7.84;39.84;93914.31;5020355;28;22153;-76
2022/02/05 14:17:47;;;;;;;7.60;3.55;;;;;;;7.62;40.21;93879.75;5022506;28;20036;-75
2022/02/05 14:20:13;;;;;;;9.68;2.97;;;;;;;7.66;39.92;93886.03;5039371;28;20198;-76
2022/02/05 14:22:43;;;;;;;5.55;4.45;;;;;;;7.80;39.74;93899.31;5026165;28;20487;-76
2022/02/05 14:25:17;;;;;;;8.63;3.80;;;;;;;7.91;39.61;93906.78;5023424;28;21621;-77
2022/02/05 14:28:07;;;;;;;7.07;4.15;;;;;;;8.00;39.57;93904.22;5024690;28;20032;-75
2022/02/05 14:30:35;;;;;;;9.27;3.92;;;;;;;7.91;39.74;93877.63;5022188;28;20497;-76
2022/02/05 14:33:04;;;;;;;9.05;5.13;;;;;;;8.00;39.50;93883.03;5020802;28;20143;-75
2022/02/05 14:40:48;;;;;;;9.48;5.22;;;;;;;7.84;40.06;93874.59;5018166;28;20658;-75
2022/02/05 14:43:17;;;;;;;6.45;4.03;;;;;;;7.73;40.42;93879.28;5026505;28;20034;-77
2022/02/05 14:45:43;;;;;;;6.45;4.03;;;;;;;7.73;40.65;93888.31;5018746;28;20437;-75
2022/02/05 14:48:12;;;;;;;8.88;4.03;;;;;;;7.90;40.22;93909.69;5013542;28;20020;-75
2022/02/05 14:50:37;;;;;;;8.80;5.45;;;;;;;8.03;40.46;93903.63;5023236;28;20806;-75
2022/02/05 14:53:03;;;;;;;7.65;3.60;;;;;;;7.98;39.89;93891.25;5014128;28;20123;-75
2022/02/05 14:55:29;;;;;;;10.13;5.50;;;;;;;8.03;39.78;93893.03;5019580;28;20069;-76